This is the latest recevied weather packets stored in our database for station/object KB3UQE. If no packets are shown the sender has not sent any weather packets the latest 10 day(s).
| Time | Temp. | Humidity | Pressure | Rain* | Wind** | Luminosity | Snow |
|---|---|---|---|---|---|---|---|
| 1777810624 | 22.78° C | 23% | 1014.6 hPa | - | - | - | - |
| 1777810474 | 27.22° C | 30% | 1014.3 hPa | - | - | - | - |
| 1777808824 | 27.22° C | 30% | 1014.3 hPa | - | - | - | - |
| 1777808674 | 27.78° C | 26% | 1014.1 hPa | - | - | - | - |
| 1777807383 | 27.78° C | 26% | 1014.1 hPa | - | - | - | - |
| 1777807174 | 29.44° C | 29% | 1013.8 hPa | - | - | - | - |
| 1777805944 | 29.44° C | 29% | 1013.8 hPa | - | - | - | - |
| 1777805734 | 29.44° C | 29% | 1013.5 hPa | - | - | - | - |
| 1777804503 | 29.44° C | 29% | 1013.5 hPa | - | - | - | - |
| 1777804293 | 30.56° C | 28% | 1013.1 hPa | - | - | - | - |
| 1777803063 | 30.56° C | 28% | 1013.1 hPa | - | - | - | - |
| 1777802853 | 30.56° C | 28% | 1012.8 hPa | - | - | - | - |
| 1777801623 | 30.56° C | 28% | 1012.8 hPa | - | - | - | - |
| 1777801413 | 30.56° C | 28% | 1012.6 hPa | - | - | - | - |
| 1777800183 | 30.56° C | 28% | 1012.6 hPa | - | - | - | - |
| 1777799972 | 30.56° C | 28% | 1012.5 hPa | - | - | - | - |
| 1777798742 | 30.56° C | 28% | 1012.5 hPa | - | - | - | - |
| 1777798532 | 31.11° C | 27% | 1012.3 hPa | - | - | - | - |
| 1777797302 | 31.11° C | 27% | 1012.3 hPa | - | - | - | - |
| 1777797092 | 31.11° C | 28% | 1012.1 hPa | - | - | - | - |
| 1777795862 | 31.11° C | 28% | 1012.1 hPa | - | - | - | - |
| 1777795652 | 31.11° C | 28% | 1011.9 hPa | - | - | - | - |
| 1777794421 | 31.11° C | 28% | 1011.9 hPa | - | - | - | - |
| 1777794212 | 31.67° C | 27% | 1011.6 hPa | - | - | - | - |
| 1777792981 | 31.67° C | 27% | 1011.6 hPa | - | - | - | - |
* Rain since midnight (hover to see other rain measurements)
** Current wind speed in m/s (hover to see current wind gust speed)